createdAt,value
2018-04-07T00:01:30.187Z,39.68
2018-04-07T00:03:59.075Z,39.83
2018-04-07T00:06:27.406Z,40.12
2018-04-07T00:08:55.837Z,40.14
2018-04-07T00:11:25.075Z,40.44
2018-04-07T00:13:54.085Z,40.51
2018-04-07T00:16:23.180Z,41.02
2018-04-07T00:18:51.783Z,40.84
2018-04-07T00:21:21.048Z,40.99
2018-04-07T00:23:49.379Z,41.12
2018-04-07T00:26:18.643Z,41.01
2018-04-07T00:28:47.456Z,40.52
2018-04-07T00:31:18.457Z,40.63
2018-04-07T00:33:47.246Z,40.91
2018-04-07T00:36:16.214Z,40.79
2018-04-07T00:38:45.327Z,40.89
2018-04-07T00:41:14.008Z,41.16
2018-04-07T00:43:44.023Z,41.38
2018-04-07T00:46:13.175Z,41.59
2018-04-07T00:48:42.434Z,41.61
2018-04-07T00:51:11.578Z,41.99
2018-04-07T00:53:40.724Z,41.62
2018-04-07T00:56:09.107Z,41.75
2018-04-07T00:58:38.691Z,41.98
2018-04-07T01:01:07.560Z,42.00
2018-04-07T01:03:36.640Z,42.11
2018-04-07T01:06:05.166Z,41.90
2018-04-07T01:08:34.202Z,41.76
2018-04-07T01:11:04.060Z,41.72
2018-04-07T01:13:34.182Z,41.82
2018-04-07T01:16:03.683Z,41.82
2018-04-07T01:18:32.065Z,41.67
2018-04-07T01:21:01.343Z,41.72
2018-04-07T01:23:30.082Z,41.79
2018-04-07T01:26:01.008Z,42.12
2018-04-07T01:28:31.278Z,42.61
2018-04-07T01:30:59.840Z,43.64
2018-04-07T01:33:28.810Z,42.90
2018-04-07T01:35:58.016Z,43.06
2018-04-07T01:38:27.248Z,43.08
2018-04-07T01:40:56.466Z,43.19
2018-04-07T01:43:24.864Z,43.50
2018-04-07T01:45:54.043Z,43.75
2018-04-07T01:48:23.526Z,43.56
2018-04-07T01:50:53.669Z,43.88
2018-04-07T01:53:22.928Z,43.88
2018-04-07T01:55:52.304Z,43.67
2018-04-07T01:58:21.288Z,43.82
2018-04-07T02:00:51.106Z,43.92
2018-04-07T02:03:20.476Z,45.04
2018-04-07T02:05:49.120Z,45.27
2018-04-07T02:08:18.648Z,45.62
2018-04-07T02:10:48.386Z,45.82
2018-04-07T02:13:17.648Z,46.08
2018-04-07T02:15:46.444Z,46.00
2018-04-07T02:18:14.755Z,46.04
2018-04-07T02:20:44.261Z,46.11
2018-04-07T02:23:15.010Z,46.00
2018-04-07T02:25:43.630Z,46.64
2018-04-07T02:28:12.987Z,47.49
2018-04-07T02:33:16.920Z,47.16
2018-04-07T02:35:45.896Z,46.93
2018-04-07T02:38:14.503Z,46.94
2018-04-07T02:40:44.688Z,46.80
2018-04-07T02:43:13.053Z,46.94
2018-04-07T02:45:42.457Z,47.38
2018-04-07T02:48:11.118Z,47.78
2018-04-07T02:50:39.897Z,48.47
2018-04-07T02:53:09.053Z,47.60
2018-04-07T02:55:37.948Z,47.74
2018-04-07T02:58:06.306Z,47.36
2018-04-07T03:00:36.527Z,47.43
2018-04-07T03:03:05.064Z,47.82
2018-04-07T03:05:34.831Z,47.55
2018-04-07T03:08:03.768Z,48.22
2018-04-07T03:10:33.368Z,48.94
2018-04-07T03:13:03.122Z,49.05
2018-04-07T03:15:33.200Z,48.28
2018-04-07T03:18:01.890Z,48.88
2018-04-07T03:20:31.125Z,48.40
2018-04-07T03:23:00.550Z,48.40
2018-04-07T03:25:29.498Z,49.49
2018-04-07T03:27:57.874Z,49.27
2018-04-07T03:30:26.261Z,50.51
2018-04-07T03:32:56.415Z,50.26
2018-04-07T03:35:25.667Z,50.23
2018-04-07T03:37:55.677Z,49.87
2018-04-07T03:40:25.080Z,49.75
2018-04-07T03:42:53.698Z,49.73
2018-04-07T03:45:24.640Z,51.15
2018-04-07T03:47:54.699Z,51.08
2018-04-07T03:50:23.422Z,50.64
2018-04-07T03:52:53.174Z,50.60
2018-04-07T03:55:22.324Z,50.55
2018-04-07T03:57:52.441Z,50.76
2018-04-07T04:00:21.695Z,51.19
2018-04-07T04:02:50.861Z,51.58
2018-04-07T04:05:19.320Z,51.36
2018-04-07T04:07:49.963Z,50.55
2018-04-07T04:10:19.117Z,51.00
2018-04-07T04:12:49.463Z,51.14
2018-04-07T04:15:17.855Z,51.74
2018-04-07T04:17:48.461Z,52.05
2018-04-07T04:20:16.841Z,52.35
2018-04-07T04:22:45.624Z,52.12
2018-04-07T04:25:15.645Z,52.78
2018-04-07T04:27:45.466Z,53.08
2018-04-07T04:30:14.148Z,53.90
2018-04-07T04:32:42.458Z,54.08
2018-04-07T04:35:10.902Z,53.59
2018-04-07T04:37:40.003Z,53.68
2018-04-07T04:40:09.135Z,53.81
2018-04-07T04:42:38.812Z,53.66
2018-04-07T04:45:09.280Z,53.77
2018-04-07T04:47:39.493Z,53.37
2018-04-07T04:50:08.643Z,52.93
2018-04-07T04:52:37.113Z,53.32
2018-04-07T04:55:05.638Z,54.06
2018-04-07T04:57:34.327Z,53.72
2018-04-07T05:00:03.085Z,54.25
2018-04-07T05:02:33.308Z,54.93
2018-04-07T05:05:02.402Z,55.22
2018-04-07T05:07:30.969Z,55.61
2018-04-07T05:09:59.934Z,55.69
2018-04-07T05:12:28.486Z,55.50
2018-04-07T05:14:57.763Z,55.87
2018-04-07T05:17:27.883Z,55.36
2018-04-07T05:19:57.651Z,54.93
2018-04-07T05:22:26.038Z,54.94
2018-04-07T05:24:54.356Z,54.68
2018-04-07T05:27:24.400Z,54.70
2018-04-07T05:29:53.680Z,54.93
2018-04-07T05:32:23.095Z,54.35
2018-04-07T05:34:52.242Z,54.96
2018-04-07T05:37:20.678Z,55.32
2018-04-07T05:39:49.129Z,55.23
2018-04-07T05:42:17.525Z,55.01
2018-04-07T05:44:47.729Z,54.91
2018-04-07T05:47:17.126Z,54.93
2018-04-07T05:49:47.344Z,54.36
2018-04-07T05:52:15.967Z,54.53
2018-04-07T05:54:45.829Z,54.03
2018-04-07T05:57:14.195Z,54.01
2018-04-07T05:59:42.793Z,53.72
2018-04-07T06:02:12.725Z,53.40
2018-04-07T06:04:41.184Z,53.83
2018-04-07T06:07:09.588Z,53.54
2018-04-07T06:09:39.693Z,54.00
2018-04-07T06:12:10.756Z,53.37
2018-04-07T06:14:40.132Z,53.97
2018-04-07T06:17:10.819Z,54.67
2018-04-07T06:19:39.454Z,55.29
2018-04-07T06:22:08.467Z,55.72
2018-04-07T06:24:37.112Z,55.79
2018-04-07T06:27:06.373Z,55.45
2018-04-07T06:29:36.509Z,54.58
2018-04-07T06:32:05.783Z,53.95
2018-04-07T06:34:35.960Z,53.25
2018-04-07T06:37:04.466Z,52.17
2018-04-07T06:39:33.253Z,51.79
2018-04-07T06:42:02.363Z,51.53
2018-04-07T06:44:30.915Z,51.33
2018-04-07T06:46:59.303Z,51.96
2018-04-07T06:49:30.246Z,51.52
2018-04-07T06:51:58.627Z,51.86
2018-04-07T06:54:26.990Z,51.39
2018-04-07T06:56:55.611Z,50.33
2018-04-07T06:59:25.817Z,50.44
2018-04-07T07:01:54.205Z,51.04
2018-04-07T07:04:23.531Z,49.89
2018-04-07T07:06:52.159Z,49.27
2018-04-07T07:09:21.437Z,48.43
2018-04-07T07:11:50.148Z,48.15
2018-04-07T07:14:19.469Z,47.52
2018-04-07T07:16:47.935Z,47.38
2018-04-07T07:19:16.730Z,46.86
2018-04-07T07:21:46.064Z,45.97
2018-04-07T07:24:15.372Z,46.65
2018-04-07T07:26:44.133Z,45.82
2018-04-07T07:29:12.547Z,45.45
2018-04-07T07:31:41.280Z,45.62
2018-04-07T07:34:10.048Z,45.47
2018-04-07T07:36:38.427Z,45.28
2018-04-07T07:39:07.003Z,44.83
2018-04-07T07:41:35.807Z,44.62
2018-04-07T07:44:06.228Z,44.89
2018-04-07T07:46:34.574Z,44.58
2018-04-07T07:49:03.744Z,43.71
2018-04-07T07:51:33.710Z,43.80
2018-04-07T07:54:02.038Z,44.00
2018-04-07T07:56:31.730Z,44.04
2018-04-07T07:59:00.915Z,43.81
2018-04-07T08:01:29.776Z,43.45
2018-04-07T08:03:59.982Z,42.69
2018-04-07T08:06:30.682Z,43.10
2018-04-07T08:09:01.158Z,43.18
2018-04-07T08:11:29.561Z,42.34
2018-04-07T08:13:58.828Z,42.53
2018-04-07T08:16:27.527Z,42.18
2018-04-07T08:18:56.719Z,42.52
2018-04-07T08:21:25.337Z,42.43
2018-04-07T08:23:54.029Z,42.11
2018-04-07T08:26:27.220Z,42.22
2018-04-07T08:28:55.668Z,41.81
2018-04-07T08:31:24.137Z,41.48
2018-04-07T08:33:58.179Z,41.65
2018-04-07T08:36:30.093Z,41.50
2018-04-07T08:38:59.279Z,40.95
2018-04-07T08:41:28.971Z,40.81
2018-04-07T08:43:58.250Z,40.47
2018-04-07T08:46:28.202Z,40.67
2018-04-07T08:48:57.262Z,40.72
2018-04-07T08:51:26.020Z,40.91
2018-04-07T08:53:54.429Z,40.97
2018-04-07T08:56:22.857Z,40.49
2018-04-07T08:58:52.173Z,40.36
2018-04-07T09:01:21.712Z,39.46
2018-04-07T09:03:52.001Z,39.42
2018-04-07T09:06:20.469Z,39.17
2018-04-07T09:08:50.015Z,38.48
2018-04-07T09:11:18.708Z,38.39
2018-04-07T09:13:48.330Z,38.33
2018-04-07T09:16:18.103Z,38.30
2018-04-07T09:18:48.857Z,38.43
2018-04-07T09:21:18.101Z,38.78
2018-04-07T09:23:47.239Z,39.18
2018-04-07T09:26:16.084Z,38.58
2018-04-07T09:28:46.567Z,38.60
2018-04-07T09:31:21.258Z,38.00
2018-04-07T09:33:50.000Z,36.69
2018-04-07T09:36:19.571Z,36.57
2018-04-07T09:38:48.585Z,36.95
2018-04-07T09:41:16.962Z,36.89
2018-04-07T09:43:46.827Z,36.39
2018-04-07T09:46:15.211Z,37.08
2018-04-07T09:48:44.137Z,36.43
2018-04-07T09:51:13.762Z,35.89
2018-04-07T09:53:42.157Z,35.58
2018-04-07T09:56:10.531Z,35.73
2018-04-07T09:58:38.880Z,36.00
2018-04-07T10:01:08.325Z,35.70
2018-04-07T10:03:40.404Z,35.38
2018-04-07T10:06:10.206Z,35.42
2018-04-07T10:08:38.612Z,34.66
2018-04-07T10:11:06.993Z,34.49
2018-04-07T10:13:35.760Z,34.20
2018-04-07T10:16:04.995Z,34.10
2018-04-07T10:18:35.285Z,33.89
2018-04-07T10:21:04.776Z,33.60
2018-04-07T10:23:34.946Z,34.13
2018-04-07T10:26:04.597Z,33.10
2018-04-07T10:28:33.954Z,33.46
2018-04-07T10:31:02.333Z,33.99
2018-04-07T10:33:31.517Z,33.97
2018-04-07T10:36:00.679Z,33.18
2018-04-07T10:38:29.440Z,32.51
2018-04-07T10:40:58.939Z,32.42
2018-04-07T10:43:27.302Z,32.90
2018-04-07T10:45:59.386Z,32.97
2018-04-07T10:48:31.793Z,31.98
2018-04-07T10:51:02.472Z,31.11
2018-04-07T10:53:32.859Z,32.50
2018-04-07T10:56:01.206Z,32.67
2018-04-07T10:58:31.241Z,31.53
2018-04-07T11:00:59.983Z,31.85
2018-04-07T11:03:29.432Z,32.55
2018-04-07T11:05:58.158Z,31.77
2018-04-07T11:08:28.604Z,31.37
2018-04-07T11:10:57.702Z,33.78
2018-04-07T11:13:27.674Z,32.61
2018-04-07T11:18:30.624Z,31.07
2018-04-07T11:21:00.207Z,31.00
2018-04-07T11:23:29.858Z,31.43
2018-04-07T11:25:58.445Z,30.16
2018-04-07T11:28:28.091Z,30.01
2018-04-07T11:30:59.054Z,30.35
2018-04-07T11:33:27.688Z,30.01
2018-04-07T11:35:59.808Z,30.00
2018-04-07T11:38:28.212Z,30.90
2018-04-07T11:40:56.600Z,30.05
2018-04-07T11:43:25.044Z,30.42
2018-04-07T11:45:53.873Z,32.21
2018-04-07T11:48:23.184Z,31.47
2018-04-07T11:50:52.436Z,32.26
2018-04-07T11:53:22.283Z,31.77
2018-04-07T11:55:50.696Z,29.66
2018-04-07T11:58:19.077Z,28.55
2018-04-07T12:00:47.773Z,28.98
2018-04-07T12:03:16.962Z,29.57
2018-04-07T12:05:45.343Z,28.39
2018-04-07T12:08:13.824Z,29.36
2018-04-07T12:10:42.199Z,32.13
2018-04-07T12:13:10.598Z,30.12
2018-04-07T12:15:39.018Z,30.13
2018-04-07T12:18:08.037Z,28.78
2018-04-07T12:20:36.358Z,28.16
2018-04-07T12:23:05.895Z,28.59
2018-04-07T12:25:35.057Z,28.29
2018-04-07T12:28:03.828Z,27.92
2018-04-07T12:30:33.059Z,28.55
2018-04-07T12:33:02.803Z,27.92
2018-04-07T12:35:32.150Z,28.63
2018-04-07T12:38:01.058Z,27.51
2018-04-07T12:40:30.575Z,28.37
2018-04-07T12:42:58.980Z,30.64
2018-04-07T12:45:28.635Z,27.21
2018-04-07T12:47:58.079Z,27.78
2018-04-07T12:50:26.689Z,26.37
2018-04-07T12:52:55.815Z,26.61
2018-04-07T12:55:26.083Z,26.38
2018-04-07T12:57:55.952Z,27.85
2018-04-07T13:00:25.819Z,26.07
2018-04-07T13:02:54.198Z,27.05
2018-04-07T13:05:23.735Z,27.95
2018-04-07T13:07:52.630Z,27.24
2018-04-07T13:10:21.811Z,25.96
2018-04-07T13:12:50.320Z,27.08
2018-04-07T13:15:18.693Z,27.33
2018-04-07T13:17:47.952Z,27.16
2018-04-07T13:20:16.275Z,26.17
2018-04-07T13:22:45.634Z,25.94
2018-04-07T13:25:14.301Z,25.17
2018-04-07T13:27:43.409Z,26.82
2018-04-07T13:30:12.028Z,24.13
2018-04-07T13:32:40.844Z,24.98
2018-04-07T13:35:11.535Z,24.75
2018-04-07T13:37:40.695Z,24.72
2018-04-07T13:40:09.909Z,24.68
2018-04-07T13:42:38.332Z,23.30
2018-04-07T13:45:06.689Z,24.04
2018-04-07T13:47:39.144Z,23.78
2018-04-07T13:50:09.061Z,23.96
2018-04-07T13:52:37.814Z,23.70
2018-04-07T13:55:06.369Z,23.48
2018-04-07T13:57:34.983Z,23.79
2018-04-07T14:00:04.200Z,23.22
2018-04-07T14:02:33.619Z,23.04
2018-04-07T14:05:03.003Z,23.82
2018-04-07T14:07:32.218Z,22.90
2018-04-07T14:10:04.879Z,24.06
2018-04-07T14:12:33.417Z,21.00
2018-04-07T14:15:02.525Z,23.05
2018-04-07T14:17:30.927Z,22.56
2018-04-07T14:20:00.841Z,22.07
2018-04-07T14:22:30.394Z,22.74
2018-04-07T14:25:00.353Z,23.00
2018-04-07T14:27:28.854Z,22.59
2018-04-07T14:29:57.288Z,23.40
2018-04-07T14:32:28.166Z,24.49
2018-04-07T14:34:57.506Z,22.87
2018-04-07T14:37:25.852Z,21.96
2018-04-07T14:39:58.272Z,22.89
2018-04-07T14:42:27.390Z,23.75
2018-04-07T14:44:56.656Z,22.29
2018-04-07T14:47:25.081Z,22.50
2018-04-07T14:49:53.466Z,22.50
2018-04-07T14:52:22.726Z,20.06
2018-04-07T14:54:51.085Z,21.25
2018-04-07T14:57:19.541Z,21.59
2018-04-07T14:59:47.941Z,21.80
2018-04-07T15:02:16.330Z,20.14
2018-04-07T15:04:44.714Z,20.19
2018-04-07T15:07:13.046Z,20.15
2018-04-07T15:09:41.396Z,20.84
2018-04-07T15:12:09.776Z,20.39
2018-04-07T15:14:39.136Z,20.56
2018-04-07T15:17:08.417Z,19.47
2018-04-07T15:19:37.604Z,20.24
2018-04-07T15:22:07.446Z,20.71
2018-04-07T15:24:36.854Z,19.31
2018-04-07T15:27:06.072Z,17.42
2018-04-07T15:29:34.841Z,18.53
2018-04-07T15:32:04.080Z,20.16
2018-04-07T15:34:33.336Z,19.75
2018-04-07T15:37:01.748Z,18.90
2018-04-07T15:39:30.350Z,18.51
2018-04-07T15:41:59.294Z,17.29
2018-04-07T15:44:28.074Z,17.78
2018-04-07T15:46:58.123Z,18.48
2018-04-07T15:49:26.539Z,18.42
2018-04-07T15:51:56.339Z,19.06
2018-04-07T15:54:25.485Z,18.69
2018-04-07T15:56:54.737Z,19.13
2018-04-07T15:59:25.920Z,18.04
2018-04-07T16:01:55.884Z,18.45
2018-04-07T16:04:24.607Z,18.16
2018-04-07T16:06:53.824Z,17.60
2018-04-07T16:09:22.629Z,18.32
2018-04-07T16:11:51.797Z,17.53
2018-04-07T16:14:21.008Z,17.72
2018-04-07T16:16:50.538Z,18.31
2018-04-07T16:19:19.397Z,18.21
2018-04-07T16:21:47.729Z,18.12
2018-04-07T16:24:16.092Z,17.27
2018-04-07T16:26:45.955Z,17.37
2018-04-07T16:29:17.413Z,16.78
2018-04-07T16:31:46.219Z,17.29
2018-04-07T16:34:14.662Z,16.99
2018-04-07T16:36:43.619Z,16.84
2018-04-07T16:39:12.007Z,16.45
2018-04-07T16:41:42.057Z,16.96
2018-04-07T16:44:10.455Z,16.88
2018-04-07T16:46:39.706Z,17.05
2018-04-07T16:49:08.775Z,16.94
2018-04-07T16:51:38.829Z,16.49
2018-04-07T16:54:08.299Z,17.18
2018-04-07T16:56:37.451Z,17.01
2018-04-07T16:59:07.167Z,17.17
2018-04-07T17:01:35.549Z,19.33
2018-04-07T17:04:04.843Z,17.99
2018-04-07T17:06:33.164Z,16.63
2018-04-07T17:09:02.852Z,17.61
2018-04-07T17:11:31.727Z,17.08
2018-04-07T17:14:01.029Z,17.98
2018-04-07T17:16:30.436Z,17.33
2018-04-07T17:18:58.822Z,17.96
2018-04-07T17:21:28.095Z,17.52
2018-04-07T17:23:56.488Z,17.44
2018-04-07T17:26:26.115Z,17.30
2018-04-07T17:28:54.514Z,18.93
2018-04-07T17:31:23.320Z,19.26
2018-04-07T17:33:51.802Z,20.07
2018-04-07T17:36:21.384Z,19.76
2018-04-07T17:38:51.277Z,19.92
2018-04-07T17:41:19.614Z,20.60
2018-04-07T17:43:48.007Z,24.53
2018-04-07T17:46:16.346Z,24.41
2018-04-07T17:48:44.763Z,24.94
2018-04-07T17:51:13.781Z,24.10
2018-04-07T17:53:42.585Z,24.72
2018-04-07T17:56:11.808Z,25.31
2018-04-07T17:58:41.202Z,25.07
2018-04-07T18:01:09.652Z,23.29
2018-04-07T18:03:39.532Z,23.79
2018-04-07T18:06:10.846Z,23.97
2018-04-07T18:08:39.992Z,24.05
2018-04-07T18:11:10.629Z,24.74
2018-04-07T18:13:39.002Z,26.74
2018-04-07T18:16:08.249Z,27.64
2018-04-07T18:18:36.594Z,28.13
2018-04-07T18:21:05.211Z,28.71
2018-04-07T18:23:35.452Z,29.13
2018-04-07T18:26:04.998Z,29.36
2018-04-07T18:28:33.852Z,29.22
2018-04-07T18:31:02.529Z,29.07
2018-04-07T18:33:31.583Z,29.22
2018-04-07T18:35:59.950Z,29.21
2018-04-07T18:38:28.325Z,29.57
2018-04-07T18:40:57.616Z,29.83
2018-04-07T18:43:26.268Z,30.19
2018-04-07T18:45:56.896Z,30.05
2018-04-07T18:48:25.324Z,30.07
2018-04-07T18:50:55.190Z,30.40
2018-04-07T18:53:24.729Z,30.79
2018-04-07T18:55:54.915Z,30.80
2018-04-07T18:58:23.272Z,30.85
2018-04-07T19:00:52.348Z,30.19
2018-04-07T19:03:20.737Z,30.44
2018-04-07T19:05:49.516Z,30.21
2018-04-07T19:08:19.943Z,30.07
2018-04-07T19:10:48.997Z,30.08
2018-04-07T19:13:18.599Z,29.96
2018-04-07T19:15:46.953Z,30.08
2018-04-07T19:18:16.938Z,29.94
2018-04-07T19:20:45.621Z,30.16
2018-04-07T19:23:14.719Z,30.24
2018-04-07T19:25:44.877Z,30.61
2018-04-07T19:28:13.335Z,30.53
2018-04-07T19:30:41.717Z,30.68
2018-04-07T19:33:10.708Z,31.12
2018-04-07T19:35:39.887Z,30.89
2018-04-07T19:38:08.956Z,31.36
2018-04-07T19:40:37.310Z,31.64
2018-04-07T19:43:06.685Z,31.82
2018-04-07T19:45:35.037Z,31.87
2018-04-07T19:48:04.206Z,31.87
2018-04-07T19:50:34.323Z,31.56
2018-04-07T19:53:03.391Z,31.62
2018-04-07T19:55:34.282Z,31.78
2018-04-07T19:58:03.672Z,31.36
2018-04-07T20:00:32.874Z,31.44
2018-04-07T20:03:01.290Z,31.56
2018-04-07T20:05:30.732Z,32.88
2018-04-07T20:07:59.100Z,33.67
2018-04-07T20:10:28.323Z,34.34
2018-04-07T20:12:56.709Z,33.20
2018-04-07T20:15:25.181Z,32.74
2018-04-07T20:17:54.400Z,32.71
2018-04-07T20:20:25.495Z,33.56
2018-04-07T20:22:54.488Z,36.39
2018-04-07T20:25:22.874Z,35.83
2018-04-07T20:27:52.130Z,34.92
2018-04-07T20:30:22.712Z,35.75
2018-04-07T20:32:53.404Z,36.55
2018-04-07T20:35:21.818Z,37.27
2018-04-07T20:37:51.711Z,37.64
2018-04-07T20:40:20.917Z,37.96
2018-04-07T20:42:50.475Z,36.60
2018-04-07T20:45:19.451Z,36.48
2018-04-07T20:47:48.420Z,36.09
2018-04-07T20:50:16.807Z,36.02
2018-04-07T20:52:45.276Z,36.50
2018-04-07T20:55:13.716Z,35.60
2018-04-07T20:57:42.632Z,34.95
2018-04-07T21:00:10.987Z,34.11
2018-04-07T21:02:40.822Z,33.93
2018-04-07T21:05:09.788Z,34.63
2018-04-07T21:07:38.892Z,36.99
2018-04-07T21:10:07.253Z,39.44
2018-04-07T21:12:35.591Z,39.20
2018-04-07T21:15:04.701Z,39.43
2018-04-07T21:17:34.645Z,39.88
2018-04-07T21:20:02.998Z,39.82
2018-04-07T21:22:32.717Z,40.32
2018-04-07T21:25:02.661Z,39.82
2018-04-07T21:27:31.055Z,39.96
2018-04-07T21:30:00.329Z,39.53
2018-04-07T21:32:29.608Z,39.81
2018-04-07T21:34:58.019Z,39.45
2018-04-07T21:37:26.778Z,38.53
2018-04-07T21:39:55.149Z,38.35
2018-04-07T21:42:23.518Z,39.52
2018-04-07T21:44:54.220Z,39.73
2018-04-07T21:47:23.397Z,41.03
2018-04-07T21:49:51.755Z,40.31
2018-04-07T21:52:21.447Z,40.33
2018-04-07T21:54:51.243Z,40.39
2018-04-07T21:57:20.771Z,41.71
2018-04-07T21:59:49.900Z,41.89
2018-04-07T22:02:18.462Z,42.40
2018-04-07T22:04:47.696Z,43.41
2018-04-07T22:07:18.180Z,43.06
2018-04-07T22:09:46.630Z,43.03
2018-04-07T22:12:16.014Z,42.81
2018-04-07T22:14:45.155Z,42.04
2018-04-07T22:17:14.643Z,43.33
2018-04-07T22:19:44.263Z,43.32
2018-04-07T22:22:13.639Z,43.27
2018-04-07T22:24:42.075Z,42.89
2018-04-07T22:27:10.860Z,42.37
2018-04-07T22:29:41.684Z,42.74
2018-04-07T22:32:10.837Z,42.55
2018-04-07T22:34:41.527Z,42.56
2018-04-07T22:37:09.859Z,42.90
2018-04-07T22:39:38.282Z,42.58
2018-04-07T22:42:07.292Z,42.05
2018-04-07T22:44:35.719Z,43.30
2018-04-07T22:47:06.264Z,43.28
2018-04-07T22:49:35.906Z,43.44
2018-04-07T22:52:05.495Z,44.31
2018-04-07T22:54:35.049Z,44.97
2018-04-07T22:57:03.460Z,45.46
2018-04-07T22:59:33.165Z,44.78
2018-04-07T23:02:03.251Z,44.05
2018-04-07T23:04:31.615Z,43.27
2018-04-07T23:06:59.942Z,44.56
2018-04-07T23:09:29.532Z,44.37
2018-04-07T23:11:57.910Z,44.98
2018-04-07T23:14:26.303Z,44.58
2018-04-07T23:16:55.484Z,45.21
2018-04-07T23:19:24.753Z,46.21
2018-04-07T23:21:53.900Z,46.03
2018-04-07T23:24:22.262Z,46.14
2018-04-07T23:26:50.648Z,46.78
2018-04-07T23:29:21.848Z,45.45
2018-04-07T23:31:50.840Z,44.21
2018-04-07T23:34:21.002Z,44.85
2018-04-07T23:36:49.451Z,45.29
2018-04-07T23:39:18.484Z,45.24
2018-04-07T23:41:48.018Z,45.15
2018-04-07T23:44:18.170Z,43.15
2018-04-07T23:46:46.742Z,43.28
2018-04-07T23:49:15.074Z,43.66
2018-04-07T23:51:44.818Z,43.37
2018-04-07T23:54:13.449Z,43.68
2018-04-07T23:56:42.191Z,43.12
2018-04-07T23:59:12.581Z,45.36
